sensor_id;sensor_type;location;lat;lon;timestamp;pressure;altitude;pressure_sealevel;temperature;humidity
50282;BME280;36176;51.506;10.272;2022-07-10T00:01:55;100235.06;;;13.67;66.97
50282;BME280;36176;51.506;10.272;2022-07-10T00:04:22;100232.34;;;13.68;67.57
50282;BME280;36176;51.506;10.272;2022-07-10T00:06:49;100224.06;;;13.74;67.78
50282;BME280;36176;51.506;10.272;2022-07-10T00:09:16;100234.34;;;13.82;67.42
50282;BME280;36176;51.506;10.272;2022-07-10T00:11:43;100230.56;;;13.86;67.19
50282;BME280;36176;51.506;10.272;2022-07-10T00:14:10;100230.44;;;13.89;67.60
50282;BME280;36176;51.506;10.272;2022-07-10T00:16:37;100228.56;;;13.91;67.28
50282;BME280;36176;51.506;10.272;2022-07-10T00:19:04;100218.16;;;13.87;67.32
50282;BME280;36176;51.506;10.272;2022-07-10T00:21:31;100220.94;;;13.83;67.42
50282;BME280;36176;51.506;10.272;2022-07-10T00:23:58;100220.94;;;13.83;66.98
50282;BME280;36176;51.506;10.272;2022-07-10T00:26:25;100221.81;;;13.84;66.10
50282;BME280;36176;51.506;10.272;2022-07-10T00:28:52;100229.03;;;13.82;65.97
50282;BME280;36176;51.506;10.272;2022-07-10T00:31:21;100224.63;;;13.81;65.67
50282;BME280;36176;51.506;10.272;2022-07-10T00:33:48;100235.16;;;13.84;65.51
50282;BME280;36176;51.506;10.272;2022-07-10T00:36:15;100229.81;;;13.84;65.14
50282;BME280;36176;51.506;10.272;2022-07-10T00:38:42;100225.41;;;13.83;64.88
50282;BME280;36176;51.506;10.272;2022-07-10T00:41:09;100224.50;;;13.84;64.99
50282;BME280;36176;51.506;10.272;2022-07-10T00:43:59;100230.72;;;13.83;64.28
50282;BME280;36176;51.506;10.272;2022-07-10T00:46:27;100224.53;;;13.82;64.75
50282;BME280;36176;51.506;10.272;2022-07-10T00:48:55;100219.16;;;13.84;64.48
50282;BME280;36176;51.506;10.272;2022-07-10T00:51:27;100224.53;;;13.82;64.55
50282;BME280;36176;51.506;10.272;2022-07-10T00:53:56;100217.56;;;13.80;64.43
50282;BME280;36176;51.506;10.272;2022-07-10T00:56:25;100223.81;;;13.79;64.65
50282;BME280;36176;51.506;10.272;2022-07-10T00:58:53;100223.06;;;13.77;64.38
50282;BME280;36176;51.506;10.272;2022-07-10T01:01:21;100221.41;;;13.74;64.46
50282;BME280;36176;51.506;10.272;2022-07-10T01:03:50;100218.00;;;13.71;64.80
50282;BME280;36176;51.506;10.272;2022-07-10T01:06:18;100207.59;;;13.66;64.98
50282;BME280;36176;51.506;10.272;2022-07-10T01:08:45;100203.28;;;13.64;64.83
50282;BME280;36176;51.506;10.272;2022-07-10T01:11:13;100201.69;;;13.59;65.01
50282;BME280;36176;51.506;10.272;2022-07-10T01:13:42;100196.50;;;13.56;65.09
50282;BME280;36176;51.506;10.272;2022-07-10T01:16:11;100191.25;;;13.55;65.10
50282;BME280;36176;51.506;10.272;2022-07-10T01:18:39;100186.28;;;13.47;65.02
50282;BME280;36176;51.506;10.272;2022-07-10T01:21:23;100188.59;;;13.36;65.31
50282;BME280;36176;51.506;10.272;2022-07-10T01:23:51;100185.22;;;13.32;65.72
50282;BME280;36176;51.506;10.272;2022-07-10T01:26:19;100188.91;;;13.30;65.55
50282;BME280;36176;51.506;10.272;2022-07-10T01:28:49;100193.44;;;13.28;65.75
50282;BME280;36176;51.506;10.272;2022-07-10T01:31:24;100187.44;;;13.23;65.95
50282;BME280;36176;51.506;10.272;2022-07-10T01:33:52;100184.97;;;13.18;65.89
50282;BME280;36176;51.506;10.272;2022-07-10T01:36:21;100188.66;;;13.15;66.25
50282;BME280;36176;51.506;10.272;2022-07-10T01:38:51;100182.53;;;13.13;65.90
50282;BME280;36176;51.506;10.272;2022-07-10T01:41:18;100178.28;;;13.09;65.89
50282;BME280;36176;51.506;10.272;2022-07-10T01:43:45;100182.84;;;13.07;65.50
50282;BME280;36176;51.506;10.272;2022-07-10T01:46:12;100182.16;;;13.02;65.45
50282;BME280;36176;51.506;10.272;2022-07-10T01:48:40;100173.47;;;12.98;65.40
50282;BME280;36176;51.506;10.272;2022-07-10T01:51:09;100179.78;;;12.96;65.88
50282;BME280;36176;51.506;10.272;2022-07-10T01:53:36;100171.16;;;12.91;65.95
50282;BME280;36176;51.506;10.272;2022-07-10T01:56:05;100177.56;;;12.87;66.14
50282;BME280;36176;51.506;10.272;2022-07-10T01:58:33;100185.94;;;12.77;66.46
50282;BME280;36176;51.506;10.272;2022-07-10T02:01:02;100177.31;;;12.72;66.88
50282;BME280;36176;51.506;10.272;2022-07-10T02:03:29;100181.03;;;12.68;67.15
50282;BME280;36176;51.506;10.272;2022-07-10T02:06:15;100183.88;;;12.64;67.32
50282;BME280;36176;51.506;10.272;2022-07-10T02:08:42;100181.44;;;12.59;67.66
50282;BME280;36176;51.506;10.272;2022-07-10T02:11:10;100183.38;;;12.55;67.76
50282;BME280;36176;51.506;10.272;2022-07-10T02:13:39;100172.81;;;12.54;67.87
50282;BME280;36176;51.506;10.272;2022-07-10T02:16:06;100175.59;;;12.51;67.94
50282;BME280;36176;51.506;10.272;2022-07-10T02:18:34;100173.75;;;12.53;68.40
50282;BME280;36176;51.506;10.272;2022-07-10T02:21:01;100172.69;;;12.57;68.37
50282;BME280;36176;51.506;10.272;2022-07-10T02:23:29;100170.69;;;12.62;68.42
50282;BME280;36176;51.506;10.272;2022-07-10T02:25:56;100174.00;;;12.67;67.96
50282;BME280;36176;51.506;10.272;2022-07-10T02:28:23;100172.00;;;12.72;67.41
50282;BME280;36176;51.506;10.272;2022-07-10T02:30:50;100170.94;;;12.76;67.31
50282;BME280;36176;51.506;10.272;2022-07-10T02:33:17;100159.28;;;12.79;67.82
50282;BME280;36176;51.506;10.272;2022-07-10T02:35:44;100160.78;;;12.85;67.92
50282;BME280;36176;51.506;10.272;2022-07-10T02:38:11;100154.31;;;12.90;67.58
50282;BME280;36176;51.506;10.272;2022-07-10T02:40:38;100158.56;;;12.94;67.06
50282;BME280;36176;51.506;10.272;2022-07-10T02:43:05;100158.66;;;12.93;67.08
50282;BME280;36176;51.506;10.272;2022-07-10T02:45:32;100156.00;;;12.93;66.68
50282;BME280;36176;51.506;10.272;2022-07-10T02:47:59;100156.00;;;12.93;66.36
50282;BME280;36176;51.506;10.272;2022-07-10T02:50:26;100155.06;;;12.94;65.58
50282;BME280;36176;51.506;10.272;2022-07-10T02:52:53;100150.59;;;12.94;65.58
50282;BME280;36176;51.506;10.272;2022-07-10T02:55:20;100150.53;;;12.96;65.22
50282;BME280;36176;51.506;10.272;2022-07-10T02:57:47;100139.75;;;12.99;65.46
50282;BME280;36176;51.506;10.272;2022-07-10T03:00:14;100137.81;;;13.03;65.46
50282;BME280;36176;51.506;10.272;2022-07-10T03:02:42;100129.91;;;13.01;65.73
50282;BME280;36176;51.506;10.272;2022-07-10T03:05:09;100143.06;;;13.04;65.54
50282;BME280;36176;51.506;10.272;2022-07-10T03:07:36;100138.53;;;13.06;65.43
50282;BME280;36176;51.506;10.272;2022-07-10T03:10:03;100127.94;;;13.05;65.63
50282;BME280;36176;51.506;10.272;2022-07-10T03:12:30;100136.03;;;13.03;65.50
50282;BME280;36176;51.506;10.272;2022-07-10T03:14:57;100139.59;;;13.02;65.79
50282;BME280;36176;51.506;10.272;2022-07-10T03:17:26;100137.88;;;13.01;65.75
50282;BME280;36176;51.506;10.272;2022-07-10T03:19:53;100140.69;;;12.98;66.23
50282;BME280;36176;51.506;10.272;2022-07-10T03:22:20;100137.38;;;12.93;66.04
50282;BME280;36176;51.506;10.272;2022-07-10T03:24:47;100146.50;;;12.87;66.04
50282;BME280;36176;51.506;10.272;2022-07-10T03:27:14;100137.66;;;12.87;66.75
50282;BME280;36176;51.506;10.272;2022-07-10T03:29:42;100143.69;;;12.90;66.99
50282;BME280;36176;51.506;10.272;2022-07-10T03:32:09;100139.25;;;12.91;66.69
50282;BME280;36176;51.506;10.272;2022-07-10T03:34:36;100137.50;;;12.90;67.06
50282;BME280;36176;51.506;10.272;2022-07-10T03:37:03;100141.13;;;12.89;67.59
50282;BME280;36176;51.506;10.272;2022-07-10T03:39:31;100135.72;;;12.90;67.64
50282;BME280;36176;51.506;10.272;2022-07-10T03:41:58;100140.16;;;12.90;68.18
50282;BME280;36176;51.506;10.272;2022-07-10T03:44:25;100138.50;;;12.87;68.40
50282;BME280;36176;51.506;10.272;2022-07-10T03:46:52;100131.59;;;12.83;69.21
50282;BME280;36176;51.506;10.272;2022-07-10T03:49:20;100130.16;;;12.76;68.78
50282;BME280;36176;51.506;10.272;2022-07-10T03:51:47;100130.25;;;12.74;69.31
50282;BME280;36176;51.506;10.272;2022-07-10T03:54:14;100125.13;;;12.70;69.79
50282;BME280;36176;51.506;10.272;2022-07-10T03:56:41;100130.31;;;12.73;69.69
50282;BME280;36176;51.506;10.272;2022-07-10T03:59:28;100128.28;;;12.78;69.96
50282;BME280;36176;51.506;10.272;2022-07-10T04:01:55;100122.06;;;12.79;70.48
50282;BME280;36176;51.506;10.272;2022-07-10T04:04:22;100126.38;;;12.82;70.44
50282;BME280;36176;51.506;10.272;2022-07-10T04:06:49;100126.38;;;12.82;70.64
50282;BME280;36176;51.506;10.272;2022-07-10T04:09:16;100121.69;;;12.87;70.72
50282;BME280;36176;51.506;10.272;2022-07-10T04:11:43;100129.31;;;12.94;70.72
50282;BME280;36176;51.506;10.272;2022-07-10T04:14:10;100132.63;;;12.99;70.80
50282;BME280;36176;51.506;10.272;2022-07-10T04:16:37;100131.50;;;13.05;70.52
50282;BME280;36176;51.506;10.272;2022-07-10T04:19:05;100132.13;;;13.10;70.74
50282;BME280;36176;51.506;10.272;2022-07-10T04:21:32;100134.66;;;13.13;70.82
50282;BME280;36176;51.506;10.272;2022-07-10T04:23:59;100127.41;;;13.17;70.66
50282;BME280;36176;51.506;10.272;2022-07-10T04:26:32;100131.75;;;13.18;70.66
50282;BME280;36176;51.506;10.272;2022-07-10T04:28:59;100127.03;;;13.25;70.47
50282;BME280;36176;51.506;10.272;2022-07-10T04:31:26;100131.38;;;13.27;70.67
50282;BME280;36176;51.506;10.272;2022-07-10T04:33:53;100135.47;;;13.34;70.98
50282;BME280;36176;51.506;10.272;2022-07-10T04:36:22;100137.75;;;13.42;70.06
50282;BME280;36176;51.506;10.272;2022-07-10T04:38:49;100141.19;;;13.44;70.34
50282;BME280;36176;51.506;10.272;2022-07-10T04:41:16;100135.88;;;13.44;70.41
50282;BME280;36176;51.506;10.272;2022-07-10T04:43:44;100142.13;;;13.43;70.03
50282;BME280;36176;51.506;10.272;2022-07-10T04:46:11;100140.97;;;13.49;70.16
50282;BME280;36176;51.506;10.272;2022-07-10T04:48:38;100139.81;;;13.54;70.24
50282;BME280;36176;51.506;10.272;2022-07-10T04:51:06;100141.31;;;13.60;70.25
50282;BME280;36176;51.506;10.272;2022-07-10T04:53:33;100146.50;;;13.63;69.86
50282;BME280;36176;51.506;10.272;2022-07-10T04:56:00;100149.22;;;13.61;70.03
50282;BME280;36176;51.506;10.272;2022-07-10T04:58:29;100151.03;;;13.61;70.09
50282;BME280;36176;51.506;10.272;2022-07-10T05:00:56;100148.22;;;13.64;69.88
50282;BME280;36176;51.506;10.272;2022-07-10T05:03:23;100146.56;;;13.61;70.41
50282;BME280;36176;51.506;10.272;2022-07-10T05:05:50;100144.69;;;13.64;70.55
50282;BME280;36176;51.506;10.272;2022-07-10T05:08:17;100146.28;;;13.68;70.40
50282;BME280;36176;51.506;10.272;2022-07-10T05:10:44;100146.09;;;13.71;70.28
50282;BME280;36176;51.506;10.272;2022-07-10T05:13:11;100137.03;;;13.75;70.13
50282;BME280;36176;51.506;10.272;2022-07-10T05:15:39;100144.88;;;13.78;69.75
50282;BME280;36176;51.506;10.272;2022-07-10T05:18:06;100145.66;;;13.80;69.90
50282;BME280;36176;51.506;10.272;2022-07-10T05:20:33;100149.19;;;13.80;69.76
50282;BME280;36176;51.506;10.272;2022-07-10T05:23:02;100151.06;;;13.78;70.19
50282;BME280;36176;51.506;10.272;2022-07-10T05:25:29;100145.81;;;13.77;70.38
50282;BME280;36176;51.506;10.272;2022-07-10T05:27:57;100151.28;;;13.74;70.64
50282;BME280;36176;51.506;10.272;2022-07-10T05:30:24;100152.06;;;13.76;70.61
50282;BME280;36176;51.506;10.272;2022-07-10T05:32:51;100152.00;;;13.77;70.79
50282;BME280;36176;51.506;10.272;2022-07-10T05:35:18;100155.06;;;13.70;70.81
50282;BME280;36176;51.506;10.272;2022-07-10T05:37:45;100157.78;;;13.68;71.38
50282;BME280;36176;51.506;10.272;2022-07-10T05:40:12;100154.88;;;13.73;71.53
50282;BME280;36176;51.506;10.272;2022-07-10T05:42:40;100155.75;;;13.73;70.98
50282;BME280;36176;51.506;10.272;2022-07-10T05:45:07;100155.53;;;13.78;71.42
50282;BME280;36176;51.506;10.272;2022-07-10T05:47:34;100157.78;;;13.86;71.31
50282;BME280;36176;51.506;10.272;2022-07-10T05:50:04;100152.88;;;13.95;71.15
50282;BME280;36176;51.506;10.272;2022-07-10T05:52:31;100151.56;;;14.04;71.30
50282;BME280;36176;51.506;10.272;2022-07-10T05:54:58;100147.72;;;14.10;70.49
50282;BME280;36176;51.506;10.272;2022-07-10T05:57:26;100153.59;;;14.16;70.46
50282;BME280;36176;51.506;10.272;2022-07-10T05:59:53;100148.81;;;14.23;70.74
50282;BME280;36176;51.506;10.272;2022-07-10T06:02:20;100152.31;;;14.41;70.34
50282;BME280;36176;51.506;10.272;2022-07-10T06:04:51;100150.38;;;14.44;70.05
50282;BME280;36176;51.506;10.272;2022-07-10T06:07:18;100148.25;;;14.51;69.34
50282;BME280;36176;51.506;10.272;2022-07-10T06:09:45;100152.25;;;14.60;68.86
50282;BME280;36176;51.506;10.272;2022-07-10T06:12:12;100146.59;;;14.66;68.30
50282;BME280;36176;51.506;10.272;2022-07-10T06:14:39;100147.81;;;14.76;68.33
50282;BME280;36176;51.506;10.272;2022-07-10T06:17:06;100146.31;;;14.88;67.93
50282;BME280;36176;51.506;10.272;2022-07-10T06:19:34;100161.81;;;14.97;67.07
50282;BME280;36176;51.506;10.272;2022-07-10T06:22:01;100163.88;;;15.08;66.25
50282;BME280;36176;51.506;10.272;2022-07-10T06:24:46;100161.06;;;15.11;66.06
50282;BME280;36176;51.506;10.272;2022-07-10T06:27:13;100162.59;;;15.15;65.93
50282;BME280;36176;51.506;10.272;2022-07-10T06:29:40;100159.94;;;15.15;65.71
50282;BME280;36176;51.506;10.272;2022-07-10T06:32:08;100169.16;;;15.09;65.88
50282;BME280;36176;51.506;10.272;2022-07-10T06:34:35;100173.28;;;15.15;66.15
50282;BME280;36176;51.506;10.272;2022-07-10T06:37:02;100174.75;;;15.21;65.01
50282;BME280;36176;51.506;10.272;2022-07-10T06:39:33;100167.78;;;15.18;64.63
50282;BME280;36176;51.506;10.272;2022-07-10T06:42:03;100165.28;;;15.31;64.86
50282;BME280;36176;51.506;10.272;2022-07-10T06:44:30;100159.78;;;15.82;64.63
50282;BME280;36176;51.506;10.272;2022-07-10T06:46:57;100158.13;;;16.40;62.26
50282;BME280;36176;51.506;10.272;2022-07-10T06:49:46;100152.28;;;16.92;60.39
50282;BME280;36176;51.506;10.272;2022-07-10T06:52:15;100148.53;;;17.09;59.74
50282;BME280;36176;51.506;10.272;2022-07-10T06:54:43;100155.63;;;17.24;59.52
50282;BME280;36176;51.506;10.272;2022-07-10T06:57:10;100151.22;;;17.23;58.17
50282;BME280;36176;51.506;10.272;2022-07-10T06:59:38;100157.72;;;17.19;57.20
50282;BME280;36176;51.506;10.272;2022-07-10T07:02:05;100160.72;;;17.00;57.08
50282;BME280;36176;51.506;10.272;2022-07-10T07:04:32;100165.75;;;17.05;56.94
50282;BME280;36176;51.506;10.272;2022-07-10T07:07:01;100160.59;;;16.87;56.25
50282;BME280;36176;51.506;10.272;2022-07-10T07:09:29;100157.69;;;16.76;57.75
50282;BME280;36176;51.506;10.272;2022-07-10T07:11:56;100159.63;;;16.74;57.46
50282;BME280;36176;51.506;10.272;2022-07-10T07:14:23;100148.72;;;16.77;56.66
50282;BME280;36176;51.506;10.272;2022-07-10T07:16:50;100152.78;;;16.84;56.72
50282;BME280;36176;51.506;10.272;2022-07-10T07:19:33;100159.81;;;17.14;55.55
50282;BME280;36176;51.506;10.272;2022-07-10T07:22:33;100152.63;;;17.43;54.30
50282;BME280;36176;51.506;10.272;2022-07-10T07:25:18;100153.72;;;17.53;53.61
50282;BME280;36176;51.506;10.272;2022-07-10T07:27:46;100156.28;;;17.55;54.11
50282;BME280;36176;51.506;10.272;2022-07-10T07:30:14;100152.53;;;17.30;53.97
50282;BME280;36176;51.506;10.272;2022-07-10T07:32:43;100149.13;;;16.99;54.38
50282;BME280;36176;51.506;10.272;2022-07-10T07:35:12;100149.59;;;16.77;55.84
50282;BME280;36176;51.506;10.272;2022-07-10T07:37:52;100152.75;;;16.70;56.55
50282;BME280;36176;51.506;10.272;2022-07-10T07:40:22;100157.03;;;16.72;56.69
50282;BME280;36176;51.506;10.272;2022-07-10T07:42:53;100155.78;;;16.78;56.40
50282;BME280;36176;51.506;10.272;2022-07-10T07:45:21;100152.50;;;16.89;57.08
50282;BME280;36176;51.506;10.272;2022-07-10T07:50:19;100152.69;;;17.14;55.09
50282;BME280;36176;51.506;10.272;2022-07-10T07:52:47;100161.28;;;17.19;54.73
50282;BME280;36176;51.506;10.272;2022-07-10T07:55:16;100166.16;;;17.13;54.44
50282;BME280;36176;51.506;10.272;2022-07-10T07:57:44;100162.91;;;17.08;54.14
50282;BME280;36176;51.506;10.272;2022-07-10T08:00:13;100159.75;;;17.01;54.02
50282;BME280;36176;51.506;10.272;2022-07-10T08:02:41;100159.38;;;16.93;54.83
50282;BME280;36176;51.506;10.272;2022-07-10T08:05:09;100161.16;;;17.07;54.95
50282;BME280;36176;51.506;10.272;2022-07-10T08:07:38;100169.75;;;17.26;55.43
50282;BME280;36176;51.506;10.272;2022-07-10T08:10:14;100164.88;;;17.33;54.09
50282;BME280;36176;51.506;10.272;2022-07-10T08:12:42;100163.16;;;17.32;54.95
50282;BME280;36176;51.506;10.272;2022-07-10T08:15:11;100157.97;;;17.43;55.62
50282;BME280;36176;51.506;10.272;2022-07-10T08:17:38;100152.25;;;18.29;54.62
50282;BME280;36176;51.506;10.272;2022-07-10T08:20:08;100154.97;;;19.68;51.57
50282;BME280;36176;51.506;10.272;2022-07-10T08:22:37;100149.94;;;20.34;45.55
50282;BME280;36176;51.506;10.272;2022-07-10T08:25:05;100142.97;;;20.32;45.66
50282;BME280;36176;51.506;10.272;2022-07-10T08:27:32;100149.75;;;20.02;45.09
50282;BME280;36176;51.506;10.272;2022-07-10T08:29:59;100144.69;;;19.49;44.43
50282;BME280;36176;51.506;10.272;2022-07-10T08:32:27;100143.41;;;18.92;46.39
50282;BME280;36176;51.506;10.272;2022-07-10T08:34:54;100147.66;;;18.31;48.29
50282;BME280;36176;51.506;10.272;2022-07-10T08:37:21;100147.88;;;17.88;49.25
50282;BME280;36176;51.506;10.272;2022-07-10T08:39:49;100148.22;;;17.69;51.44
50282;BME280;36176;51.506;10.272;2022-07-10T08:42:17;100152.19;;;17.76;52.21
50282;BME280;36176;51.506;10.272;2022-07-10T08:44:45;100153.66;;;17.82;52.21
50282;BME280;36176;51.506;10.272;2022-07-10T08:47:12;100151.69;;;17.98;50.41
50282;BME280;36176;51.506;10.272;2022-07-10T08:49:46;100155.91;;;18.15;49.61
50282;BME280;36176;51.506;10.272;2022-07-10T08:52:26;100156.91;;;17.87;48.31
50282;BME280;36176;51.506;10.272;2022-07-10T08:54:56;100151.88;;;18.61;49.50
50282;BME280;36176;51.506;10.272;2022-07-10T08:57:24;100141.19;;;19.60;47.24
50282;BME280;36176;51.506;10.272;2022-07-10T08:59:51;100130.72;;;20.16;45.12
50282;BME280;36176;51.506;10.272;2022-07-10T09:02:21;100134.84;;;20.56;44.12
50282;BME280;36176;51.506;10.272;2022-07-10T09:04:48;100127.44;;;20.24;42.84
50282;BME280;36176;51.506;10.272;2022-07-10T09:07:15;100135.38;;;19.66;43.54
50282;BME280;36176;51.506;10.272;2022-07-10T09:09:54;100142.09;;;19.11;45.72
50282;BME280;36176;51.506;10.272;2022-07-10T09:12:22;100140.63;;;18.81;47.05
50282;BME280;36176;51.506;10.272;2022-07-10T09:14:50;100135.75;;;18.74;47.66
50282;BME280;36176;51.506;10.272;2022-07-10T09:17:18;100149.72;;;18.66;47.87
50282;BME280;36176;51.506;10.272;2022-07-10T09:19:45;100145.09;;;18.55;48.05
50282;BME280;36176;51.506;10.272;2022-07-10T09:22:13;100144.69;;;18.61;47.02
50282;BME280;36176;51.506;10.272;2022-07-10T09:24:45;100143.28;;;18.68;47.34
50282;BME280;36176;51.506;10.272;2022-07-10T09:27:15;100142.44;;;18.94;46.56
50282;BME280;36176;51.506;10.272;2022-07-10T09:29:47;100139.94;;;19.03;47.05
50282;BME280;36176;51.506;10.272;2022-07-10T09:32:17;100143.00;;;19.36;46.16
50282;BME280;36176;51.506;10.272;2022-07-10T09:34:46;100136.31;;;19.41;44.38
50282;BME280;36176;51.506;10.272;2022-07-10T09:37:21;100135.25;;;19.68;44.38
50282;BME280;36176;51.506;10.272;2022-07-10T09:40:05;100141.69;;;20.13;42.83
50282;BME280;36176;51.506;10.272;2022-07-10T09:42:37;100134.75;;;21.25;41.57
50282;BME280;36176;51.506;10.272;2022-07-10T09:47:45;100127.16;;;21.74;39.04
50282;BME280;36176;51.506;10.272;2022-07-10T09:52:58;100121.69;;;20.98;40.03
50282;BME280;36176;51.506;10.272;2022-07-10T09:55:28;100123.50;;;20.75;39.56
50282;BME280;36176;51.506;10.272;2022-07-10T09:57:57;100132.69;;;21.17;42.05
50282;BME280;36176;51.506;10.272;2022-07-10T10:00:29;100127.03;;;22.07;40.08
50282;BME280;36176;51.506;10.272;2022-07-10T10:03:04;100128.53;;;22.54;38.87
50282;BME280;36176;51.506;10.272;2022-07-10T10:05:44;100124.38;;;23.01;36.10
50282;BME280;36176;51.506;10.272;2022-07-10T10:08:24;100123.34;;;22.71;36.80
50282;BME280;36176;51.506;10.272;2022-07-10T10:10:52;100122.94;;;23.38;35.85
50282;BME280;36176;51.506;10.272;2022-07-10T10:13:24;100113.06;;;23.27;34.79
50282;BME280;36176;51.506;10.272;2022-07-10T10:15:55;100122.41;;;22.51;35.98
50282;BME280;36176;51.506;10.272;2022-07-10T10:18:26;100108.63;;;22.13;37.76
50282;BME280;36176;51.506;10.272;2022-07-10T10:20:54;100113.63;;;22.59;36.19
50282;BME280;36176;51.506;10.272;2022-07-10T10:23:24;100099.72;;;22.64;35.22
50282;BME280;36176;51.506;10.272;2022-07-10T10:25:54;100095.78;;;22.99;37.48
50282;BME280;36176;51.506;10.272;2022-07-10T10:28:23;100090.19;;;23.31;37.38
50282;BME280;36176;51.506;10.272;2022-07-10T10:30:57;100102.03;;;23.40;36.07
50282;BME280;36176;51.506;10.272;2022-07-10T10:35:59;100102.38;;;22.54;36.22
50282;BME280;36176;51.506;10.272;2022-07-10T10:41:24;100089.69;;;21.16;38.10
50282;BME280;36176;51.506;10.272;2022-07-10T10:46:59;100093.72;;;23.22;36.46
50282;BME280;36176;51.506;10.272;2022-07-10T10:49:50;100090.84;;;23.13;36.49
50282;BME280;36176;51.506;10.272;2022-07-10T10:52:18;100099.00;;;22.92;35.21
50282;BME280;36176;51.506;10.272;2022-07-10T10:57:22;100096.31;;;21.99;38.03
50282;BME280;36176;51.506;10.272;2022-07-10T10:59:51;100107.16;;;21.55;38.73
50282;BME280;36176;51.506;10.272;2022-07-10T11:02:28;100108.06;;;20.99;39.53
50282;BME280;36176;51.506;10.272;2022-07-10T11:10:34;100111.88;;;21.08;41.79
50282;BME280;36176;51.506;10.272;2022-07-10T11:13:17;100108.84;;;22.21;40.34
50282;BME280;36176;51.506;10.272;2022-07-10T11:15:49;100106.19;;;22.72;39.97
50282;BME280;36176;51.506;10.272;2022-07-10T11:18:20;100101.34;;;23.07;38.47
50282;BME280;36176;51.506;10.272;2022-07-10T11:20:53;100103.03;;;22.67;37.62
50282;BME280;36176;51.506;10.272;2022-07-10T11:23:45;100098.69;;;22.13;40.30
50282;BME280;36176;51.506;10.272;2022-07-10T11:26:49;100100.16;;;22.38;39.13
50282;BME280;36176;51.506;10.272;2022-07-10T11:29:17;100099.16;;;22.39;39.14
50282;BME280;36176;51.506;10.272;2022-07-10T11:31:52;100104.31;;;21.89;39.55
50282;BME280;36176;51.506;10.272;2022-07-10T11:34:21;100098.09;;;21.34;41.54
50282;BME280;36176;51.506;10.272;2022-07-10T11:36:49;100105.84;;;21.27;41.86
50282;BME280;36176;51.506;10.272;2022-07-10T11:39:16;100104.22;;;21.47;42.51
50282;BME280;36176;51.506;10.272;2022-07-10T11:41:45;100095.53;;;22.29;40.98
50282;BME280;36176;51.506;10.272;2022-07-10T11:44:14;100086.59;;;23.11;40.03
50282;BME280;36176;51.506;10.272;2022-07-10T11:46:43;100088.69;;;23.87;39.23
50282;BME280;36176;51.506;10.272;2022-07-10T11:49:12;100076.59;;;24.67;36.85
50282;BME280;36176;51.506;10.272;2022-07-10T11:51:42;100087.44;;;24.95;34.29
50282;BME280;36176;51.506;10.272;2022-07-10T11:54:11;100064.00;;;25.03;34.48
50282;BME280;36176;51.506;10.272;2022-07-10T11:56:41;100074.28;;;25.55;32.69
50282;BME280;36176;51.506;10.272;2022-07-10T11:59:11;100077.41;;;25.96;32.69
50282;BME280;36176;51.506;10.272;2022-07-10T12:04:13;100082.28;;;24.74;32.86
50282;BME280;36176;51.506;10.272;2022-07-10T12:06:42;100079.56;;;24.17;32.52
50282;BME280;36176;51.506;10.272;2022-07-10T12:09:13;100065.16;;;24.26;34.04
50282;BME280;36176;51.506;10.272;2022-07-10T12:11:41;100069.34;;;25.23;33.12
50282;BME280;36176;51.506;10.272;2022-07-10T12:14:20;100076.56;;;25.04;31.59
50282;BME280;36176;51.506;10.272;2022-07-10T12:16:51;100072.94;;;24.39;32.31
50282;BME280;36176;51.506;10.272;2022-07-10T12:19:27;100067.75;;;23.89;32.18
50282;BME280;36176;51.506;10.272;2022-07-10T12:21:54;100075.22;;;23.36;33.96
50282;BME280;36176;51.506;10.272;2022-07-10T12:24:24;100076.44;;;23.03;33.92
50282;BME280;36176;51.506;10.272;2022-07-10T12:26:52;100077.91;;;22.86;34.11
50282;BME280;36176;51.506;10.272;2022-07-10T12:29:21;100062.09;;;22.41;34.86
50282;BME280;36176;51.506;10.272;2022-07-10T12:31:51;100078.16;;;22.22;35.50
50282;BME280;36176;51.506;10.272;2022-07-10T12:34:18;100074.91;;;22.07;36.90
50282;BME280;36176;51.506;10.272;2022-07-10T12:36:49;100080.47;;;22.05;37.44
50282;BME280;36176;51.506;10.272;2022-07-10T12:39:24;100077.88;;;22.04;37.55
50282;BME280;36176;51.506;10.272;2022-07-10T12:41:56;100079.72;;;22.03;37.21
50282;BME280;36176;51.506;10.272;2022-07-10T12:44:50;100079.03;;;22.22;39.45
50282;BME280;36176;51.506;10.272;2022-07-10T12:47:19;100076.25;;;22.34;38.10
50282;BME280;36176;51.506;10.272;2022-07-10T12:49:57;100087.16;;;22.11;38.04
50282;BME280;36176;51.506;10.272;2022-07-10T12:52:30;100073.72;;;22.00;36.93
50282;BME280;36176;51.506;10.272;2022-07-10T12:55:12;100071.47;;;22.05;37.52
50282;BME280;36176;51.506;10.272;2022-07-10T12:57:59;100079.34;;;22.08;36.89
50282;BME280;36176;51.506;10.272;2022-07-10T13:00:29;100074.19;;;21.84;37.47
50282;BME280;36176;51.506;10.272;2022-07-10T13:03:05;100083.34;;;21.60;38.51
50282;BME280;36176;51.506;10.272;2022-07-10T13:05:38;100079.09;;;21.47;39.15
50282;BME280;36176;51.506;10.272;2022-07-10T13:08:15;100082.78;;;21.34;39.18
50282;BME280;36176;51.506;10.272;2022-07-10T13:10:45;100091.38;;;21.28;40.21
50282;BME280;36176;51.506;10.272;2022-07-10T13:13:14;100096.06;;;21.03;40.18
50282;BME280;36176;51.506;10.272;2022-07-10T13:15:43;100092.28;;;20.84;40.85
50282;BME280;36176;51.506;10.272;2022-07-10T13:18:25;100090.34;;;20.74;41.73
50282;BME280;36176;51.506;10.272;2022-07-10T13:20:54;100089.72;;;20.82;41.25